Hightower, Alabama
Current Conditions -  °F | °C
As of 12:55 PM on Tuesday 27 Jan 2015 (Local Time) from KCTJ Reporting Station
Overcast Overcast  
Wind Chill: 41°   Ceiling: 4800
Heat Index: 46°   Visibility: 10mi
Dew Point: 30°   Wind: 12mph
Humidity: 53%   Direction: 350°N
Pressure: 29.99"   Gusts: 22mph
Location:  33.4631°N, 85.3362°W
Report Text: KCTJ 271855Z AUTO 35010G19KT 290V360 10SM SCT042 OVC048 08/M01 A2999 RMK AO2
Loading
Personal Weather Stations






























Interactive Weather Map New forecast layout! Learn more

10-Day Weather Forecast

Advertisements
Track Severe Weather on mobile